sensor_id;sensor_type;location;lat;lon;timestamp;pressure;altitude;pressure_sealevel;temperature;humidity
47742;BME280;33504;52.066;6.096;2022-11-03T00:00:18;101410.61;;;12.68;44.23
47742;BME280;33504;52.066;6.096;2022-11-03T00:02:45;101411.55;;;12.77;43.79
47742;BME280;33504;52.066;6.096;2022-11-03T00:05:12;101414.41;;;11.73;45.39
47742;BME280;33504;52.066;6.096;2022-11-03T00:07:38;101410.75;;;12.27;44.65
47742;BME280;33504;52.066;6.096;2022-11-03T00:10:06;101404.14;;;12.77;44.69
47742;BME280;33504;52.066;6.096;2022-11-03T00:12:33;101401.13;;;12.82;44.63
47742;BME280;33504;52.066;6.096;2022-11-03T00:15:00;101399.89;;;12.55;44.73
47742;BME280;33504;52.066;6.096;2022-11-03T00:17:27;101400.63;;;12.30;45.19
47742;BME280;33504;52.066;6.096;2022-11-03T00:19:54;101399.58;;;12.39;45.48
47742;BME280;33504;52.066;6.096;2022-11-03T00:22:21;101392.95;;;12.27;45.45
47742;BME280;33504;52.066;6.096;2022-11-03T00:24:48;101393.51;;;12.43;45.15
47742;BME280;33504;52.066;6.096;2022-11-03T00:27:15;101390.18;;;12.88;45.27
47742;BME280;33504;52.066;6.096;2022-11-03T00:29:42;101389.69;;;12.37;45.30
47742;BME280;33504;52.066;6.096;2022-11-03T00:32:09;101394.62;;;12.36;45.76
47742;BME280;33504;52.066;6.096;2022-11-03T00:34:35;101389.71;;;13.02;44.76
47742;BME280;33504;52.066;6.096;2022-11-03T00:37:02;101384.85;;;12.89;44.92
47742;BME280;33504;52.066;6.096;2022-11-03T00:39:29;101384.07;;;13.09;44.69
47742;BME280;33504;52.066;6.096;2022-11-03T00:41:56;101373.50;;;12.84;44.72
47742;BME280;33504;52.066;6.096;2022-11-03T00:44:23;101367.65;;;12.88;44.95
47742;BME280;33504;52.066;6.096;2022-11-03T00:46:50;101357.95;;;12.57;44.73
47742;BME280;33504;52.066;6.096;2022-11-03T00:49:17;101351.34;;;12.78;44.79
47742;BME280;33504;52.066;6.096;2022-11-03T00:51:44;101349.29;;;12.72;45.04
47742;BME280;33504;52.066;6.096;2022-11-03T00:54:11;101347.37;;;13.28;44.08
47742;BME280;33504;52.066;6.096;2022-11-03T00:56:40;101345.60;;;13.15;43.87
47742;BME280;33504;52.066;6.096;2022-11-03T00:59:08;101343.37;;;13.14;44.19
47742;BME280;33504;52.066;6.096;2022-11-03T01:01:37;101338.50;;;12.47;45.24
47742;BME280;33504;52.066;6.096;2022-11-03T01:04:05;101335.51;;;12.17;45.21
47742;BME280;33504;52.066;6.096;2022-11-03T01:06:34;101327.83;;;12.34;44.97
47742;BME280;33504;52.066;6.096;2022-11-03T01:09:01;101326.65;;;12.50;45.47
47742;BME280;33504;52.066;6.096;2022-11-03T01:11:27;101324.28;;;12.58;45.35
47742;BME280;33504;52.066;6.096;2022-11-03T01:13:54;101320.38;;;12.26;45.80
47742;BME280;33504;52.066;6.096;2022-11-03T01:16:22;101317.73;;;11.84;46.56
47742;BME280;33504;52.066;6.096;2022-11-03T01:18:50;101311.99;;;12.28;45.83
47742;BME280;33504;52.066;6.096;2022-11-03T01:21:17;101310.89;;;12.15;46.07
47742;BME280;33504;52.066;6.096;2022-11-03T01:23:45;101308.83;;;11.99;46.77
47742;BME280;33504;52.066;6.096;2022-11-03T01:26:12;101305.02;;;11.65;47.03
47742;BME280;33504;52.066;6.096;2022-11-03T01:28:42;101304.96;;;12.12;46.65
47742;BME280;33504;52.066;6.096;2022-11-03T01:31:12;101300.26;;;12.63;46.09
47742;BME280;33504;52.066;6.096;2022-11-03T01:33:39;101297.66;;;12.06;46.32
47742;BME280;33504;52.066;6.096;2022-11-03T01:36:08;101299.05;;;12.37;45.88
47742;BME280;33504;52.066;6.096;2022-11-03T01:38:35;101293.33;;;12.26;46.04
47742;BME280;33504;52.066;6.096;2022-11-03T01:41:05;101292.65;;;12.02;46.42
47742;BME280;33504;52.066;6.096;2022-11-03T01:43:33;101286.38;;;12.21;46.48
47742;BME280;33504;52.066;6.096;2022-11-03T01:46:05;101282.23;;;12.20;46.49
47742;BME280;33504;52.066;6.096;2022-11-03T01:48:34;101275.30;;;11.97;46.58
47742;BME280;33504;52.066;6.096;2022-11-03T01:51:03;101274.50;;;12.45;46.17
47742;BME280;33504;52.066;6.096;2022-11-03T01:53:33;101272.41;;;12.24;46.14
47742;BME280;33504;52.066;6.096;2022-11-03T01:56:02;101266.45;;;12.45;45.80
47742;BME280;33504;52.066;6.096;2022-11-03T01:58:31;101256.51;;;12.36;45.98
47742;BME280;33504;52.066;6.096;2022-11-03T02:01:00;101257.98;;;12.64;45.51
47742;BME280;33504;52.066;6.096;2022-11-03T02:03:32;101252.88;;;12.23;46.27
47742;BME280;33504;52.066;6.096;2022-11-03T02:06:02;101253.00;;;11.95;46.76
47742;BME280;33504;52.066;6.096;2022-11-03T02:08:34;101249.70;;;12.13;46.42
47742;BME280;33504;52.066;6.096;2022-11-03T02:11:02;101249.27;;;11.96;46.76
47742;BME280;33504;52.066;6.096;2022-11-03T02:13:28;101250.42;;;11.61;47.43
47742;BME280;33504;52.066;6.096;2022-11-03T02:15:57;101243.28;;;12.28;47.05
47742;BME280;33504;52.066;6.096;2022-11-03T02:18:28;101236.07;;;12.31;46.23
47742;BME280;33504;52.066;6.096;2022-11-03T02:21:01;101232.60;;;12.06;46.62
47742;BME280;33504;52.066;6.096;2022-11-03T02:23:35;101235.56;;;12.10;46.92
47742;BME280;33504;52.066;6.096;2022-11-03T02:26:05;101226.11;;;12.32;46.62
47742;BME280;33504;52.066;6.096;2022-11-03T02:28:35;101222.88;;;11.82;46.99
47742;BME280;33504;52.066;6.096;2022-11-03T02:31:07;101221.46;;;12.41;46.36
47742;BME280;33504;52.066;6.096;2022-11-03T02:33:42;101222.14;;;12.01;46.96
47742;BME280;33504;52.066;6.096;2022-11-03T02:36:17;101217.67;;;12.01;46.61
47742;BME280;33504;52.066;6.096;2022-11-03T02:38:50;101212.99;;;12.23;46.26
47742;BME280;33504;52.066;6.096;2022-11-03T02:41:19;101205.23;;;11.92;46.75
47742;BME280;33504;52.066;6.096;2022-11-03T02:43:48;101196.49;;;11.72;47.15
47742;BME280;33504;52.066;6.096;2022-11-03T02:46:15;101193.29;;;12.42;46.33
47742;BME280;33504;52.066;6.096;2022-11-03T02:48:42;101190.57;;;11.89;46.76
47742;BME280;33504;52.066;6.096;2022-11-03T02:51:10;101188.80;;;11.73;46.59
47742;BME280;33504;52.066;6.096;2022-11-03T02:53:41;101186.83;;;11.92;46.61
47742;BME280;33504;52.066;6.096;2022-11-03T02:56:14;101180.77;;;12.30;46.38
47742;BME280;33504;52.066;6.096;2022-11-03T02:58:49;101180.58;;;12.27;46.45
47742;BME280;33504;52.066;6.096;2022-11-03T03:01:24;101173.67;;;12.26;46.10
47742;BME280;33504;52.066;6.096;2022-11-03T03:03:56;101171.78;;;11.72;47.31
47742;BME280;33504;52.066;6.096;2022-11-03T03:06:26;101170.51;;;11.80;47.30
47742;BME280;33504;52.066;6.096;2022-11-03T03:08:57;101172.59;;;12.09;46.73
47742;BME280;33504;52.066;6.096;2022-11-03T03:11:25;101175.94;;;11.80;46.46
47742;BME280;33504;52.066;6.096;2022-11-03T03:13:52;101173.03;;;12.06;46.39
47742;BME280;33504;52.066;6.096;2022-11-03T03:16:24;101172.69;;;12.44;46.15
47742;BME280;33504;52.066;6.096;2022-11-03T03:18:59;101162.71;;;12.05;46.86
47742;BME280;33504;52.066;6.096;2022-11-03T03:21:32;101164.58;;;11.85;46.76
47742;BME280;33504;52.066;6.096;2022-11-03T03:24:07;101165.22;;;11.63;47.27
47742;BME280;33504;52.066;6.096;2022-11-03T03:26:40;101156.78;;;11.92;46.82
47742;BME280;33504;52.066;6.096;2022-11-03T03:29:12;101159.34;;;12.11;46.45
47742;BME280;33504;52.066;6.096;2022-11-03T03:31:42;101151.92;;;12.16;46.73
47742;BME280;33504;52.066;6.096;2022-11-03T03:34:14;101134.76;;;12.42;45.98
47742;BME280;33504;52.066;6.096;2022-11-03T03:36:44;101148.08;;;12.29;46.23
47742;BME280;33504;52.066;6.096;2022-11-03T03:39:13;101142.35;;;12.15;46.47
47742;BME280;33504;52.066;6.096;2022-11-03T03:41:43;101136.23;;;11.69;47.17
47742;BME280;33504;52.066;6.096;2022-11-03T03:44:11;101138.78;;;12.27;46.64
47742;BME280;33504;52.066;6.096;2022-11-03T03:46:42;101132.46;;;11.88;46.98
47742;BME280;33504;52.066;6.096;2022-11-03T03:49:10;101128.52;;;12.06;46.62
47742;BME280;33504;52.066;6.096;2022-11-03T03:51:37;101128.48;;;12.45;45.99
47742;BME280;33504;52.066;6.096;2022-11-03T03:54:05;101128.10;;;11.87;46.88
47742;BME280;33504;52.066;6.096;2022-11-03T03:56:35;101122.25;;;11.74;47.69
47742;BME280;33504;52.066;6.096;2022-11-03T03:59:05;101115.98;;;12.02;47.11
47742;BME280;33504;52.066;6.096;2022-11-03T04:01:32;101113.45;;;12.24;46.37
47742;BME280;33504;52.066;6.096;2022-11-03T04:03:59;101106.53;;;12.17;46.49
47742;BME280;33504;52.066;6.096;2022-11-03T04:06:26;101101.71;;;11.98;46.84
47742;BME280;33504;52.066;6.096;2022-11-03T04:08:53;101101.34;;;12.04;46.80
47742;BME280;33504;52.066;6.096;2022-11-03T04:11:20;101095.69;;;11.79;47.57
47742;BME280;33504;52.066;6.096;2022-11-03T04:13:47;101090.99;;;11.97;47.33
47742;BME280;33504;52.066;6.096;2022-11-03T04:16:14;101090.33;;;12.16;46.92
47742;BME280;33504;52.066;6.096;2022-11-03T04:18:40;101079.83;;;12.00;47.29
47742;BME280;33504;52.066;6.096;2022-11-03T04:21:10;101091.71;;;11.87;47.19
47742;BME280;33504;52.066;6.096;2022-11-03T04:23:38;101088.60;;;12.19;46.58
47742;BME280;33504;52.066;6.096;2022-11-03T04:26:09;101086.98;;;12.18;46.59
47742;BME280;33504;52.066;6.096;2022-11-03T04:28:37;101085.28;;;11.99;47.36
47742;BME280;33504;52.066;6.096;2022-11-03T04:31:08;101076.11;;;11.75;47.41
47742;BME280;33504;52.066;6.096;2022-11-03T04:33:36;101074.68;;;11.84;47.24
47742;BME280;33504;52.066;6.096;2022-11-03T04:36:09;101070.98;;;11.85;47.58
47742;BME280;33504;52.066;6.096;2022-11-03T04:38:39;101070.33;;;11.71;47.65
47742;BME280;33504;52.066;6.096;2022-11-03T04:41:14;101065.94;;;11.92;47.74
47742;BME280;33504;52.066;6.096;2022-11-03T04:43:42;101054.12;;;11.53;48.00
47742;BME280;33504;52.066;6.096;2022-11-03T04:46:12;101052.14;;;12.16;47.29
47742;BME280;33504;52.066;6.096;2022-11-03T04:48:39;101047.32;;;11.81;47.92
47742;BME280;33504;52.066;6.096;2022-11-03T04:51:13;101059.93;;;11.66;48.13
47742;BME280;33504;52.066;6.096;2022-11-03T04:53:45;101059.31;;;11.94;47.40
47742;BME280;33504;52.066;6.096;2022-11-03T04:56:16;101053.62;;;12.10;47.37
47742;BME280;33504;52.066;6.096;2022-11-03T04:58:43;101061.86;;;11.75;48.00
47742;BME280;33504;52.066;6.096;2022-11-03T05:01:12;101062.63;;;11.74;47.73
47742;BME280;33504;52.066;6.096;2022-11-03T05:03:41;101058.23;;;12.26;46.92
47742;BME280;33504;52.066;6.096;2022-11-03T05:06:12;101051.44;;;11.91;47.01
47742;BME280;33504;52.066;6.096;2022-11-03T05:08:41;101058.28;;;12.26;46.87
47742;BME280;33504;52.066;6.096;2022-11-03T05:11:16;101047.08;;;12.08;46.77
47742;BME280;33504;52.066;6.096;2022-11-03T05:13:45;101044.45;;;12.25;46.79
47742;BME280;33504;52.066;6.096;2022-11-03T05:16:12;101046.76;;;11.57;47.24
47742;BME280;33504;52.066;6.096;2022-11-03T05:18:42;101042.67;;;11.98;47.39
47742;BME280;33504;52.066;6.096;2022-11-03T05:21:13;101039.02;;;12.40;46.99
47742;BME280;33504;52.066;6.096;2022-11-03T05:23:44;101034.26;;;11.97;47.33
47742;BME280;33504;52.066;6.096;2022-11-03T05:26:16;101033.66;;;11.69;47.45
47742;BME280;33504;52.066;6.096;2022-11-03T05:28:47;101027.73;;;11.41;48.04
47742;BME280;33504;52.066;6.096;2022-11-03T05:31:21;101021.70;;;11.86;47.60
47742;BME280;33504;52.066;6.096;2022-11-03T05:33:51;101017.55;;;11.68;48.00
47742;BME280;33504;52.066;6.096;2022-11-03T05:36:20;101015.62;;;12.36;46.53
47742;BME280;33504;52.066;6.096;2022-11-03T05:38:48;101015.69;;;12.44;46.35
47742;BME280;33504;52.066;6.096;2022-11-03T05:41:19;101018.77;;;12.73;46.26
47742;BME280;33504;52.066;6.096;2022-11-03T05:43:54;101013.22;;;12.06;46.95
47742;BME280;33504;52.066;6.096;2022-11-03T05:46:23;101008.24;;;12.15;46.86
47742;BME280;33504;52.066;6.096;2022-11-03T05:48:52;101002.79;;;12.00;47.54
47742;BME280;33504;52.066;6.096;2022-11-03T05:51:21;100996.37;;;12.19;47.28
47742;BME280;33504;52.066;6.096;2022-11-03T05:53:53;100995.88;;;11.87;47.55
47742;BME280;33504;52.066;6.096;2022-11-03T05:56:22;100989.20;;;11.96;47.42
47742;BME280;33504;52.066;6.096;2022-11-03T05:58:51;100983.78;;;12.26;46.97
47742;BME280;33504;52.066;6.096;2022-11-03T06:01:23;100981.87;;;11.90;47.63
47742;BME280;33504;52.066;6.096;2022-11-03T06:03:51;100979.81;;;12.10;47.67
47742;BME280;33504;52.066;6.096;2022-11-03T06:06:20;100977.28;;;11.77;48.26
47742;BME280;33504;52.066;6.096;2022-11-03T06:08:47;100980.14;;;11.88;47.86
47742;BME280;33504;52.066;6.096;2022-11-03T06:11:24;100974.97;;;12.25;47.19
47742;BME280;33504;52.066;6.096;2022-11-03T06:13:55;100965.15;;;12.02;47.52
47742;BME280;33504;52.066;6.096;2022-11-03T06:16:35;100966.13;;;11.71;47.71
47742;BME280;33504;52.066;6.096;2022-11-03T06:19:15;100965.32;;;12.12;47.88
47742;BME280;33504;52.066;6.096;2022-11-03T06:21:45;100966.14;;;11.51;48.70
47742;BME280;33504;52.066;6.096;2022-11-03T06:24:15;100960.58;;;12.13;47.95
47742;BME280;33504;52.066;6.096;2022-11-03T06:26:44;100959.33;;;11.77;48.24
47742;BME280;33504;52.066;6.096;2022-11-03T06:29:14;100956.87;;;12.22;48.28
47742;BME280;33504;52.066;6.096;2022-11-03T06:31:42;100955.51;;;11.98;48.38
47742;BME280;33504;52.066;6.096;2022-11-03T06:34:21;100951.90;;;12.11;48.23
47742;BME280;33504;52.066;6.096;2022-11-03T06:36:52;100952.91;;;12.49;47.64
47742;BME280;33504;52.066;6.096;2022-11-03T06:39:23;100951.01;;;12.18;47.87
47742;BME280;33504;52.066;6.096;2022-11-03T06:41:50;100950.99;;;11.65;48.84
47742;BME280;33504;52.066;6.096;2022-11-03T06:44:22;100943.03;;;12.04;48.63
47742;BME280;33504;52.066;6.096;2022-11-03T06:46:49;100943.29;;;11.34;49.61
47742;BME280;33504;52.066;6.096;2022-11-03T06:49:26;100940.50;;;11.85;48.78
47742;BME280;33504;52.066;6.096;2022-11-03T06:51:54;100936.16;;;12.36;47.95
47742;BME280;33504;52.066;6.096;2022-11-03T06:54:21;100933.00;;;11.74;49.11
47742;BME280;33504;52.066;6.096;2022-11-03T06:56:49;100929.55;;;12.04;49.16
47742;BME280;33504;52.066;6.096;2022-11-03T06:59:17;100929.70;;;11.88;49.48
47742;BME280;33504;52.066;6.096;2022-11-03T07:01:46;100925.75;;;11.39;50.10
47742;BME280;33504;52.066;6.096;2022-11-03T07:04:18;100928.27;;;12.42;48.71
47742;BME280;33504;52.066;6.096;2022-11-03T07:06:46;100927.24;;;12.33;48.94
47742;BME280;33504;52.066;6.096;2022-11-03T07:09:17;100914.68;;;12.65;48.03
47742;BME280;33504;52.066;6.096;2022-11-03T07:11:47;100919.03;;;12.18;49.01
47742;BME280;33504;52.066;6.096;2022-11-03T07:14:16;100921.92;;;12.28;48.90
47742;BME280;33504;52.066;6.096;2022-11-03T07:16:46;100912.90;;;12.67;48.25
47742;BME280;33504;52.066;6.096;2022-11-03T07:19:18;100919.58;;;12.59;48.45
47742;BME280;33504;52.066;6.096;2022-11-03T07:21:48;100913.41;;;12.57;48.64
47742;BME280;33504;52.066;6.096;2022-11-03T07:24:18;100903.71;;;12.80;48.19
47742;BME280;33504;52.066;6.096;2022-11-03T07:26:48;100910.17;;;12.56;48.31
47742;BME280;33504;52.066;6.096;2022-11-03T07:29:22;100907.81;;;12.62;48.80
47742;BME280;33504;52.066;6.096;2022-11-03T07:31:53;100910.61;;;12.65;48.91
47742;BME280;33504;52.066;6.096;2022-11-03T07:34:23;100908.09;;;12.77;48.28
47742;BME280;33504;52.066;6.096;2022-11-03T07:36:52;100913.56;;;12.52;49.11
47742;BME280;33504;52.066;6.096;2022-11-03T07:39:20;100910.72;;;12.85;48.66
47742;BME280;33504;52.066;6.096;2022-11-03T07:41:48;100907.29;;;12.79;48.74
47742;BME280;33504;52.066;6.096;2022-11-03T07:44:17;100905.34;;;12.52;49.28
47742;BME280;33504;52.066;6.096;2022-11-03T07:46:45;100903.75;;;12.37;49.14
47742;BME280;33504;52.066;6.096;2022-11-03T07:49:22;100897.11;;;12.69;48.55
47742;BME280;33504;52.066;6.096;2022-11-03T07:51:50;100896.57;;;12.90;48.78
47742;BME280;33504;52.066;6.096;2022-11-03T07:54:19;100890.22;;;12.38;49.26
47742;BME280;33504;52.066;6.096;2022-11-03T07:56:50;100890.70;;;12.65;48.97
47742;BME280;33504;52.066;6.096;2022-11-03T07:59:20;100895.56;;;12.71;49.29
47742;BME280;33504;52.066;6.096;2022-11-03T08:01:48;100882.65;;;12.49;49.77
47742;BME280;33504;52.066;6.096;2022-11-03T08:04:18;100888.93;;;12.54;49.65
47742;BME280;33504;52.066;6.096;2022-11-03T08:06:46;100874.91;;;12.76;49.37
47742;BME280;33504;52.066;6.096;2022-11-03T08:09:14;100869.39;;;12.45;49.45
47742;BME280;33504;52.066;6.096;2022-11-03T08:11:41;100870.16;;;13.06;48.01
47742;BME280;33504;52.066;6.096;2022-11-03T08:14:08;100867.77;;;13.06;48.39
47742;BME280;33504;52.066;6.096;2022-11-03T08:16:35;100868.17;;;13.12;48.28
47742;BME280;33504;52.066;6.096;2022-11-03T08:19:02;100858.48;;;12.84;48.62
47742;BME280;33504;52.066;6.096;2022-11-03T08:21:29;100858.40;;;13.11;47.93
47742;BME280;33504;52.066;6.096;2022-11-03T08:23:57;100856.56;;;13.22;47.69
47742;BME280;33504;52.066;6.096;2022-11-03T08:26:24;100855.45;;;12.94;48.13
47742;BME280;33504;52.066;6.096;2022-11-03T08:28:52;100851.30;;;13.04;48.03
47742;BME280;33504;52.066;6.096;2022-11-03T08:31:19;100859.98;;;13.53;47.60
47742;BME280;33504;52.066;6.096;2022-11-03T08:33:47;100856.12;;;13.52;46.93
47742;BME280;33504;52.066;6.096;2022-11-03T08:36:14;100852.86;;;13.83;46.80
47742;BME280;33504;52.066;6.096;2022-11-03T08:38:41;100851.51;;;13.78;46.63
47742;BME280;33504;52.066;6.096;2022-11-03T08:41:08;100851.84;;;13.89;46.87
47742;BME280;33504;52.066;6.096;2022-11-03T08:43:35;100848.97;;;13.92;46.70
47742;BME280;33504;52.066;6.096;2022-11-03T08:46:02;100844.36;;;13.90;46.44
47742;BME280;33504;52.066;6.096;2022-11-03T08:48:30;100833.17;;;13.59;46.93
47742;BME280;33504;52.066;6.096;2022-11-03T08:50:57;100831.75;;;13.86;46.51
47742;BME280;33504;52.066;6.096;2022-11-03T08:53:25;100824.25;;;13.62;46.93
47742;BME280;33504;52.066;6.096;2022-11-03T08:55:52;100821.22;;;12.97;47.80
47742;BME280;33504;52.066;6.096;2022-11-03T08:58:20;100816.09;;;12.91;48.19
47742;BME280;33504;52.066;6.096;2022-11-03T09:00:47;100810.36;;;12.98;47.76
47742;BME280;33504;52.066;6.096;2022-11-03T09:03:15;100804.76;;;13.28;47.54
47742;BME280;33504;52.066;6.096;2022-11-03T09:05:42;100796.19;;;13.56;47.39
47742;BME280;33504;52.066;6.096;2022-11-03T09:08:09;100792.18;;;13.65;46.86
47742;BME280;33504;52.066;6.096;2022-11-03T09:10:36;100778.99;;;13.85;46.70
47742;BME280;33504;52.066;6.096;2022-11-03T09:13:03;100776.20;;;13.65;46.99
47742;BME280;33504;52.066;6.096;2022-11-03T09:15:30;100768.07;;;13.88;46.50
47742;BME280;33504;52.066;6.096;2022-11-03T09:17:58;100763.12;;;14.04;46.34
47742;BME280;33504;52.066;6.096;2022-11-03T09:20:25;100750.19;;;14.11;45.78
47742;BME280;33504;52.066;6.096;2022-11-03T09:22:52;100749.73;;;13.41;46.74
47742;BME280;33504;52.066;6.096;2022-11-03T09:25:19;100742.76;;;13.65;46.46
47742;BME280;33504;52.066;6.096;2022-11-03T09:27:46;100742.55;;;14.01;45.93
47742;BME280;33504;52.066;6.096;2022-11-03T09:30:13;100741.23;;;14.09;45.94
47742;BME280;33504;52.066;6.096;2022-11-03T09:32:39;100730.85;;;13.98;45.93
47742;BME280;33504;52.066;6.096;2022-11-03T09:35:07;100722.44;;;13.78;46.40
47742;BME280;33504;52.066;6.096;2022-11-03T09:37:35;100717.36;;;13.76;45.91
47742;BME280;33504;52.066;6.096;2022-11-03T09:40:03;100704.39;;;13.92;46.00
47742;BME280;33504;52.066;6.096;2022-11-03T09:42:30;100698.93;;;14.17;45.52
47742;BME280;33504;52.066;6.096;2022-11-03T09:44:58;100695.42;;;14.69;44.66
47742;BME280;33504;52.066;6.096;2022-11-03T09:47:28;100697.22;;;14.60;45.04
47742;BME280;33504;52.066;6.096;2022-11-03T09:49:56;100689.75;;;14.20;45.06
47742;BME280;33504;52.066;6.096;2022-11-03T09:52:24;100684.46;;;14.61;44.61
47742;BME280;33504;52.066;6.096;2022-11-03T09:54:52;100677.37;;;14.07;45.41
47742;BME280;33504;52.066;6.096;2022-11-03T09:57:20;100669.12;;;14.98;43.89
47742;BME280;33504;52.066;6.096;2022-11-03T09:59:49;100655.23;;;15.36;43.31
47742;BME280;33504;52.066;6.096;2022-11-03T10:02:21;100659.03;;;14.87;43.97
47742;BME280;33504;52.066;6.096;2022-11-03T10:04:51;100647.56;;;15.09;43.39
47742;BME280;33504;52.066;6.096;2022-11-03T10:07:19;100643.97;;;14.86;43.36
47742;BME280;33504;52.066;6.096;2022-11-03T10:09:49;100638.36;;;14.39;44.29
47742;BME280;33504;52.066;6.096;2022-11-03T10:12:17;100628.24;;;14.65;44.06
47742;BME280;33504;52.066;6.096;2022-11-03T10:14:45;100629.26;;;15.13;43.51
47742;BME280;33504;52.066;6.096;2022-11-03T10:17:15;100628.00;;;15.39;43.15
47742;BME280;33504;52.066;6.096;2022-11-03T10:19:44;100615.96;;;15.02;42.89
47742;BME280;33504;52.066;6.096;2022-11-03T10:22:14;100610.42;;;15.01;42.82
47742;BME280;33504;52.066;6.096;2022-11-03T10:24:41;100613.20;;;14.69;43.26
47742;BME280;33504;52.066;6.096;2022-11-03T10:27:20;100608.35;;;14.68;43.41
47742;BME280;33504;52.066;6.096;2022-11-03T10:30:06;100607.31;;;14.95;43.15
47742;BME280;33504;52.066;6.096;2022-11-03T10:32:33;100605.79;;;14.75;43.45
47742;BME280;33504;52.066;6.096;2022-11-03T10:35:01;100605.09;;;15.06;42.64
47742;BME280;33504;52.066;6.096;2022-11-03T10:37:29;100598.82;;;15.33;42.79
47742;BME280;33504;52.066;6.096;2022-11-03T10:39:56;100586.22;;;14.66;43.33
47742;BME280;33504;52.066;6.096;2022-11-03T10:42:25;100584.68;;;15.01;42.57
47742;BME280;33504;52.066;6.096;2022-11-03T10:44:54;100578.76;;;14.75;43.15
47742;BME280;33504;52.066;6.096;2022-11-03T10:47:31;100569.27;;;14.55;43.09
47742;BME280;33504;52.066;6.096;2022-11-03T10:49:59;100562.50;;;14.47;43.28
47742;BME280;33504;52.066;6.096;2022-11-03T10:52:27;100549.92;;;14.35;43.53
47742;BME280;33504;52.066;6.096;2022-11-03T10:54:57;100555.42;;;14.87;43.13
47742;BME280;33504;52.066;6.096;2022-11-03T10:57:26;100539.18;;;13.89;43.80
47742;BME280;33504;52.066;6.096;2022-11-03T10:59:54;100536.95;;;14.41;43.35
47742;BME280;33504;52.066;6.096;2022-11-03T11:02:24;100527.39;;;14.64;43.05
47742;BME280;33504;52.066;6.096;2022-11-03T11:04:56;100520.65;;;14.84;42.58
47742;BME280;33504;52.066;6.096;2022-11-03T11:07:25;100514.43;;;14.81;42.79
47742;BME280;33504;52.066;6.096;2022-11-03T11:09:55;100509.32;;;15.15;41.96
47742;BME280;33504;52.066;6.096;2022-11-03T11:12:23;100501.74;;;14.84;42.59
47742;BME280;33504;52.066;6.096;2022-11-03T11:14:53;100503.39;;;14.32;43.59
47742;BME280;33504;52.066;6.096;2022-11-03T11:17:53;100493.05;;;15.35;42.79
47742;BME280;33504;52.066;6.096;2022-11-03T11:20:37;100492.65;;;14.27;43.03
47742;BME280;33504;52.066;6.096;2022-11-03T11:23:45;100473.96;;;15.89;41.96
47742;BME280;33504;52.066;6.096;2022-11-03T11:26:16;100475.81;;;14.85;41.68
47742;BME280;33504;52.066;6.096;2022-11-03T11:28:45;100465.95;;;15.26;41.07
47742;BME280;33504;52.066;6.096;2022-11-03T11:31:29;100463.07;;;15.14;41.43
47742;BME280;33504;52.066;6.096;2022-11-03T11:34:44;100471.13;;;15.87;41.57
47742;BME280;33504;52.066;6.096;2022-11-03T11:37:44;100466.38;;;15.14;42.19
47742;BME280;33504;52.066;6.096;2022-11-03T11:40:12;100463.74;;;14.94;41.90
47742;BME280;33504;52.066;6.096;2022-11-03T11:43:24;100459.09;;;15.50;41.02
47742;BME280;33504;52.066;6.096;2022-11-03T11:46:37;100446.98;;;15.99;40.84
47742;BME280;33504;52.066;6.096;2022-11-03T11:49:20;100444.90;;;15.17;40.96
47742;BME280;33504;52.066;6.096;2022-11-03T11:51:47;100449.38;;;15.30;40.67
47742;BME280;33504;52.066;6.096;2022-11-03T11:54:17;100445.17;;;15.43;40.66
47742;BME280;33504;52.066;6.096;2022-11-03T11:56:47;100443.53;;;15.53;40.56
47742;BME280;33504;52.066;6.096;2022-11-03T11:59:18;100438.12;;;15.73;40.07
47742;BME280;33504;52.066;6.096;2022-11-03T12:01:49;100443.30;;;15.90;40.15
47742;BME280;33504;52.066;6.096;2022-11-03T12:04:19;100434.49;;;15.85;40.35
47742;BME280;33504;52.066;6.096;2022-11-03T12:06:46;100430.71;;;15.98;39.99
47742;BME280;33504;52.066;6.096;2022-11-03T12:09:16;100421.81;;;16.15;39.42
47742;BME280;33504;52.066;6.096;2022-11-03T12:11:45;100417.42;;;16.22;39.58
47742;BME280;33504;52.066;6.096;2022-11-03T12:14:22;100407.52;;;15.48;40.38
47742;BME280;33504;52.066;6.096;2022-11-03T12:16:49;100398.80;;;15.69;40.38
47742;BME280;33504;52.066;6.096;2022-11-03T12:19:35;100388.14;;;15.88;40.30
47742;BME280;33504;52.066;6.096;2022-11-03T12:22:04;100382.08;;;15.71;40.20
47742;BME280;33504;52.066;6.096;2022-11-03T12:24:36;100369.15;;;15.96;40.37
47742;BME280;33504;52.066;6.096;2022-11-03T12:27:18;100369.83;;;15.54;40.61
47742;BME280;33504;52.066;6.096;2022-11-03T12:29:46;100359.23;;;15.82;40.56
47742;BME280;33504;52.066;6.096;2022-11-03T12:32:13;100353.65;;;16.07;39.89
47742;BME280;33504;52.066;6.096;2022-11-03T12:34:39;100351.71;;;15.97;39.97
47742;BME280;33504;52.066;6.096;2022-11-03T12:37:06;100352.68;;;16.31;39.66
47742;BME280;33504;52.066;6.096;2022-11-03T12:39:33;100339.78;;;16.33;39.61
47742;BME280;33504;52.066;6.096;2022-11-03T12:42:01;100336.25;;;15.97;39.85
47742;BME280;33504;52.066;6.096;2022-11-03T12:44:27;100329.65;;;15.40;40.47
47742;BME280;33504;52.066;6.096;2022-11-03T12:46:54;100319.14;;;15.93;40.53
47742;BME280;33504;52.066;6.096;2022-11-03T12:49:21;100302.78;;;16.24;39.99
47742;BME280;33504;52.066;6.096;2022-11-03T12:51:48;100311.75;;;16.48;39.58
47742;BME280;33504;52.066;6.096;2022-11-03T12:54:16;100314.17;;;16.72;39.24
47742;BME280;33504;52.066;6.096;2022-11-03T12:56:43;100320.92;;;16.44;39.28
47742;BME280;33504;52.066;6.096;2022-11-03T12:59:10;100314.19;;;16.56;38.67
47742;BME280;33504;52.066;6.096;2022-11-03T13:01:36;100310.46;;;17.29;38.48
47742;BME280;33504;52.066;6.096;2022-11-03T13:04:03;100305.97;;;17.40;38.08